createdAt,value
2017-12-21T00:00:00.982Z,8.70
2017-12-21T00:02:28.590Z,8.57
2017-12-21T00:04:56.918Z,6.93
2017-12-21T00:07:24.523Z,10.68
2017-12-21T00:09:52.850Z,6.80
2017-12-21T00:12:20.433Z,9.05
2017-12-21T00:14:48.244Z,10.00
2017-12-21T00:17:15.819Z,10.50
2017-12-21T00:19:43.426Z,9.23
2017-12-21T00:22:11.927Z,10.80
2017-12-21T00:24:40.351Z,12.13
2017-12-21T00:27:07.953Z,12.02
2017-12-21T00:29:35.614Z,10.15
2017-12-21T00:32:03.326Z,9.57
2017-12-21T00:34:30.985Z,10.77
2017-12-21T00:36:58.558Z,10.27
2017-12-21T00:39:26.175Z,11.20
2017-12-21T00:41:54.522Z,8.90
2017-12-21T00:44:22.143Z,11.20
2017-12-21T00:46:49.716Z,11.60
2017-12-21T00:49:17.319Z,12.13
2017-12-21T00:51:45.687Z,11.38
2017-12-21T00:54:14.130Z,11.07
2017-12-21T00:56:41.737Z,12.68
2017-12-21T00:59:10.080Z,12.18
2017-12-21T01:01:37.639Z,12.00
2017-12-21T01:04:05.328Z,11.38
2017-12-21T01:06:33.674Z,11.77
2017-12-21T01:09:01.305Z,11.90
2017-12-21T01:11:28.873Z,11.00
2017-12-21T01:13:56.496Z,12.00
2017-12-21T01:16:24.830Z,13.90
2017-12-21T01:18:52.407Z,14.67
2017-12-21T01:21:20.017Z,13.47
2017-12-21T01:23:47.678Z,12.65
2017-12-21T01:26:15.283Z,15.10
2017-12-21T01:28:42.847Z,15.18
2017-12-21T01:31:10.436Z,14.87
2017-12-21T01:33:38.016Z,14.00
2017-12-21T01:36:05.630Z,15.95
2017-12-21T01:38:34.057Z,16.35
2017-12-21T01:41:01.630Z,13.93
2017-12-21T01:43:29.376Z,14.90
2017-12-21T01:45:56.941Z,17.55
2017-12-21T01:48:24.543Z,13.95
2017-12-21T01:50:52.119Z,15.87
2017-12-21T01:53:20.590Z,15.03
2017-12-21T01:55:49.982Z,15.30
2017-12-21T01:58:18.356Z,15.90
2017-12-21T02:00:45.942Z,16.55
2017-12-21T02:03:13.500Z,18.27
2017-12-21T02:05:41.101Z,16.05
2017-12-21T02:08:08.658Z,16.27
2017-12-21T02:10:36.302Z,17.80
2017-12-21T02:13:04.075Z,18.02
2017-12-21T02:15:31.664Z,15.67
2017-12-21T02:17:59.986Z,13.07
2017-12-21T02:20:27.579Z,12.10
2017-12-21T02:22:55.138Z,12.90
2017-12-21T02:25:22.695Z,12.90
2017-12-21T02:27:50.296Z,13.62
2017-12-21T02:30:18.720Z,14.10
2017-12-21T02:32:46.280Z,12.43
2017-12-21T02:35:13.968Z,14.32
2017-12-21T02:37:41.535Z,12.95
2017-12-21T02:40:09.200Z,12.82
2017-12-21T02:42:36.758Z,12.80
2017-12-21T02:45:04.347Z,13.00
2017-12-21T02:47:31.931Z,12.37
2017-12-21T02:49:59.545Z,13.70
2017-12-21T02:52:27.880Z,12.77
2017-12-21T02:54:55.480Z,11.67
2017-12-21T02:57:23.804Z,12.25
2017-12-21T02:59:51.466Z,12.25
2017-12-21T03:02:19.148Z,12.10
2017-12-21T03:04:46.722Z,10.55
2017-12-21T03:07:14.324Z,12.80
2017-12-21T03:09:41.887Z,11.10
2017-12-21T03:12:09.511Z,10.80
2017-12-21T03:14:37.074Z,10.75
2017-12-21T03:17:05.443Z,9.80
2017-12-21T03:19:33.042Z,11.40
2017-12-21T03:22:00.597Z,10.03
2017-12-21T03:24:28.194Z,9.67
2017-12-21T03:26:55.827Z,9.10
2017-12-21T03:29:23.402Z,8.40
2017-12-21T03:31:50.990Z,11.17
2017-12-21T03:34:18.574Z,8.70
2017-12-21T03:36:46.981Z,14.40
2017-12-21T03:39:14.544Z,13.57
2017-12-21T03:41:42.134Z,15.30
2017-12-21T03:44:09.703Z,12.98
2017-12-21T03:46:37.286Z,14.27
2017-12-21T03:49:04.885Z,15.95
2017-12-21T03:51:32.497Z,15.30
2017-12-21T03:54:00.846Z,17.62
2017-12-21T03:56:28.410Z,15.30
2017-12-21T03:58:55.998Z,15.20
2017-12-21T04:01:24.355Z,16.40
2017-12-21T04:03:51.950Z,14.63
2017-12-21T04:06:19.504Z,15.07
2017-12-21T04:08:47.090Z,15.40
2017-12-21T04:11:14.651Z,15.73
2017-12-21T04:13:42.252Z,14.32
2017-12-21T04:16:10.596Z,12.95
2017-12-21T04:18:38.166Z,15.10
2017-12-21T04:21:05.779Z,13.07
2017-12-21T04:23:33.367Z,14.37
2017-12-21T04:26:00.963Z,14.20
2017-12-21T04:28:28.524Z,13.30
2017-12-21T04:30:56.877Z,9.35
2017-12-21T04:33:24.486Z,9.88
2017-12-21T04:35:52.167Z,10.55
2017-12-21T04:38:19.724Z,10.65
2017-12-21T04:40:47.287Z,11.52
2017-12-21T04:43:14.956Z,11.90
2017-12-21T04:45:42.542Z,9.80
2017-12-21T04:48:10.112Z,8.85
2017-12-21T04:50:38.486Z,9.25
2017-12-21T04:53:06.070Z,9.90
2017-12-21T04:55:33.746Z,12.55
2017-12-21T04:58:01.306Z,11.07
2017-12-21T05:00:28.968Z,9.90
2017-12-21T05:02:56.638Z,12.60
2017-12-21T05:05:24.207Z,10.25
2017-12-21T05:07:51.856Z,10.90
2017-12-21T05:10:19.418Z,11.70
2017-12-21T05:12:47.010Z,11.47
2017-12-21T05:15:14.579Z,11.77
2017-12-21T05:17:42.295Z,12.33
2017-12-21T05:20:09.862Z,13.05
2017-12-21T05:22:37.451Z,13.90
2017-12-21T05:25:05.012Z,12.85
2017-12-21T05:27:32.736Z,15.75
2017-12-21T05:30:00.295Z,14.55
2017-12-21T05:32:27.857Z,12.73
2017-12-21T05:34:55.447Z,14.20
2017-12-21T05:37:23.905Z,15.75
2017-12-21T05:39:51.507Z,11.43
2017-12-21T05:42:19.843Z,15.88
2017-12-21T05:44:47.567Z,17.00
2017-12-21T05:47:15.139Z,17.58
2017-12-21T05:49:42.735Z,15.07
2017-12-21T05:52:10.307Z,16.17
2017-12-21T05:54:37.898Z,12.25
2017-12-21T05:57:05.512Z,18.37
2017-12-21T05:59:33.078Z,15.45
2017-12-21T06:02:00.799Z,17.10
2017-12-21T06:04:28.429Z,16.50
2017-12-21T06:06:56.023Z,16.37
2017-12-21T06:09:23.594Z,19.70
2017-12-21T06:11:51.257Z,18.08
2017-12-21T06:14:18.839Z,16.23
2017-12-21T06:16:46.454Z,16.48
2017-12-21T06:19:14.059Z,14.10
2017-12-21T06:21:41.630Z,13.70
2017-12-21T06:24:09.215Z,14.37
2017-12-21T06:26:36.787Z,12.48
2017-12-21T06:29:04.383Z,10.27
2017-12-21T06:31:32.016Z,12.13
2017-12-21T06:33:59.606Z,14.45
2017-12-21T06:36:27.170Z,14.80
2017-12-21T06:38:54.734Z,12.73
2017-12-21T06:41:22.346Z,9.75
2017-12-21T06:43:50.005Z,12.37
2017-12-21T06:46:17.578Z,12.55
2017-12-21T06:48:45.198Z,15.15
2017-12-21T06:51:12.755Z,12.25
2017-12-21T06:53:40.347Z,14.38
2017-12-21T06:56:07.937Z,15.90
2017-12-21T06:58:35.534Z,20.20
2017-12-21T07:01:03.103Z,19.93
2017-12-21T07:03:30.698Z,22.10
2017-12-21T07:05:58.269Z,23.92
2017-12-21T07:08:25.840Z,24.20
2017-12-21T07:10:53.442Z,24.80
2017-12-21T07:13:21.014Z,25.90
2017-12-21T07:15:49.102Z,22.60
2017-12-21T07:18:16.699Z,23.77
2017-12-21T07:20:45.067Z,24.42
2017-12-21T07:23:12.777Z,22.50
2017-12-21T07:25:40.381Z,21.40
2017-12-21T07:28:07.996Z,23.40
2017-12-21T07:30:35.596Z,23.23
2017-12-21T07:33:04.038Z,24.70
2017-12-21T07:35:31.651Z,21.77
2017-12-21T07:38:00.087Z,22.70
2017-12-21T07:40:27.746Z,18.98
2017-12-21T07:42:55.351Z,19.95
2017-12-21T07:45:23.679Z,19.67
2017-12-21T07:47:51.267Z,19.17
2017-12-21T07:50:18.831Z,19.48
2017-12-21T07:52:46.423Z,19.48
2017-12-21T07:55:14.010Z,19.40
2017-12-21T07:57:41.635Z,18.57
2017-12-21T08:00:10.035Z,19.12
2017-12-21T08:02:37.586Z,18.00
2017-12-21T08:05:05.184Z,15.83
2017-12-21T08:07:32.739Z,16.17
2017-12-21T08:10:00.336Z,15.97
2017-12-21T08:12:27.903Z,14.60
2017-12-21T08:14:56.335Z,12.50
2017-12-21T08:17:23.901Z,9.00
2017-12-21T08:19:51.606Z,8.95
2017-12-21T08:22:19.195Z,9.45
2017-12-21T08:24:46.850Z,8.07
2017-12-21T08:27:14.426Z,9.10
2017-12-21T08:29:42.071Z,6.70
2017-12-21T08:32:09.691Z,8.53
2017-12-21T08:34:38.011Z,5.53
2017-12-21T08:37:05.579Z,9.87
2017-12-21T08:39:33.159Z,8.60
2017-12-21T08:42:01.501Z,9.52
2017-12-21T08:44:29.158Z,7.97
2017-12-21T08:46:56.760Z,10.20
2017-12-21T08:49:24.384Z,9.50
2017-12-21T08:51:52.040Z,7.70
2017-12-21T08:54:19.649Z,9.80
2017-12-21T08:56:47.223Z,7.07
2017-12-21T08:59:15.548Z,9.47
2017-12-21T09:01:43.146Z,9.32
2017-12-21T09:04:11.570Z,7.07
2017-12-21T09:06:39.150Z,9.40
2017-12-21T09:09:06.854Z,7.40
2017-12-21T09:11:35.375Z,9.30
2017-12-21T09:14:02.931Z,11.00
2017-12-21T09:16:30.592Z,8.97
2017-12-21T09:18:58.148Z,8.40
2017-12-21T09:21:25.707Z,8.47
2017-12-21T09:23:53.283Z,5.50
2017-12-21T09:26:20.839Z,9.67
2017-12-21T09:28:48.504Z,7.67
2017-12-21T09:31:16.071Z,7.87
2017-12-21T09:33:43.703Z,8.30
2017-12-21T09:36:11.271Z,9.73
2017-12-21T09:38:38.827Z,4.70
2017-12-21T09:41:06.418Z,8.40
2017-12-21T09:43:33.972Z,5.30
2017-12-21T09:46:01.542Z,10.70
2017-12-21T09:48:29.102Z,8.70
2017-12-21T09:50:56.703Z,6.10
2017-12-21T09:53:24.373Z,5.87
2017-12-21T09:55:51.987Z,9.80
2017-12-21T09:58:19.547Z,8.80
2017-12-21T10:00:47.179Z,7.43
2017-12-21T10:03:14.767Z,8.30
2017-12-21T10:05:42.328Z,8.63
2017-12-21T10:08:10.707Z,7.90
2017-12-21T10:10:39.111Z,8.50
2017-12-21T10:13:06.711Z,6.77
2017-12-21T10:15:34.267Z,6.27
2017-12-21T10:18:01.831Z,8.93
2017-12-21T10:20:29.447Z,9.30
2017-12-21T10:22:57.121Z,8.60
2017-12-21T10:25:24.670Z,7.20
2017-12-21T10:27:52.275Z,6.83
2017-12-21T10:30:19.827Z,5.77
2017-12-21T10:32:47.415Z,7.90
2017-12-21T10:35:15.743Z,9.00
2017-12-21T10:37:43.339Z,9.17
2017-12-21T10:40:10.896Z,8.47
2017-12-21T10:42:38.459Z,8.50
2017-12-21T10:45:07.602Z,9.60
2017-12-21T10:47:35.364Z,7.50
2017-12-21T10:50:02.940Z,9.40
2017-12-21T10:52:30.490Z,8.10
2017-12-21T10:54:58.142Z,8.70
2017-12-21T10:57:25.804Z,8.67
2017-12-21T10:59:53.465Z,9.30
2017-12-21T11:02:21.123Z,8.60
2017-12-21T11:04:48.723Z,8.13
2017-12-21T11:07:16.290Z,8.70
2017-12-21T11:09:43.886Z,8.30
2017-12-21T11:12:11.479Z,8.40
2017-12-21T11:14:39.120Z,8.13
2017-12-21T11:17:06.718Z,8.07
2017-12-21T11:19:34.307Z,8.13
2017-12-21T11:22:02.646Z,11.33
2017-12-21T11:24:30.215Z,7.10
2017-12-21T11:26:57.830Z,7.43
2017-12-21T11:29:25.380Z,6.77
2017-12-21T11:31:52.982Z,7.50
2017-12-21T11:34:20.608Z,6.87
2017-12-21T11:36:48.222Z,8.10
2017-12-21T11:39:15.790Z,8.17
2017-12-21T11:41:44.234Z,6.70
2017-12-21T11:44:11.911Z,5.40
2017-12-21T11:46:39.482Z,5.67
2017-12-21T11:49:07.139Z,6.00
2017-12-21T11:51:34.695Z,5.97
2017-12-21T11:54:02.319Z,4.97
2017-12-21T11:56:29.871Z,5.33
2017-12-21T11:58:57.455Z,5.87
2017-12-21T12:01:25.230Z,5.37
2017-12-21T12:03:52.830Z,5.60
2017-12-21T12:06:20.468Z,5.10
2017-12-21T12:08:48.855Z,5.57
2017-12-21T12:11:17.183Z,5.60
2017-12-21T12:13:44.750Z,4.40
2017-12-21T12:16:12.432Z,4.47
2017-12-21T12:18:40.002Z,4.93
2017-12-21T12:21:08.355Z,4.77
2017-12-21T12:23:35.939Z,5.27
2017-12-21T12:26:04.327Z,5.33
2017-12-21T12:28:32.776Z,4.73
2017-12-21T12:31:00.385Z,5.07
2017-12-21T12:33:27.937Z,4.70
2017-12-21T12:35:55.500Z,4.93
2017-12-21T12:38:23.087Z,4.57
2017-12-21T12:40:50.648Z,3.80
2017-12-21T12:43:18.323Z,5.40
2017-12-21T12:45:45.898Z,6.07
2017-12-21T12:48:13.652Z,4.20
2017-12-21T12:50:41.211Z,4.53
2017-12-21T12:53:08.762Z,5.47
2017-12-21T12:55:36.356Z,4.63
2017-12-21T12:58:04.718Z,4.70
2017-12-21T13:00:33.090Z,4.63
2017-12-21T13:03:00.704Z,5.33
2017-12-21T13:05:28.378Z,5.40
2017-12-21T13:07:56.067Z,2.73
2017-12-21T13:10:23.659Z,5.80
2017-12-21T13:12:51.343Z,4.83
2017-12-21T13:15:18.939Z,5.00
2017-12-21T13:17:46.507Z,5.77
2017-12-21T13:20:14.063Z,5.00
2017-12-21T13:22:41.654Z,5.63
2017-12-21T13:25:09.275Z,5.13
2017-12-21T13:27:36.879Z,5.60
2017-12-21T13:30:04.434Z,5.53
2017-12-21T13:32:32.023Z,6.37
2017-12-21T13:34:59.628Z,5.30
2017-12-21T13:37:27.955Z,5.30
2017-12-21T13:39:55.544Z,7.00
2017-12-21T13:42:23.100Z,6.63
2017-12-21T13:44:50.899Z,5.50
2017-12-21T13:47:18.468Z,5.67
2017-12-21T13:49:46.073Z,5.67
2017-12-21T13:52:13.703Z,5.80
2017-12-21T13:54:41.272Z,6.00
2017-12-21T13:57:08.935Z,6.07
2017-12-21T13:59:36.536Z,6.73
2017-12-21T14:02:04.099Z,6.17
2017-12-21T14:04:32.531Z,5.93
2017-12-21T14:07:00.275Z,7.17
2017-12-21T14:09:27.851Z,5.83
2017-12-21T14:11:55.428Z,6.80
2017-12-21T14:14:23.114Z,7.03
2017-12-21T14:16:51.492Z,6.47
2017-12-21T14:19:19.807Z,6.50
2017-12-21T14:21:47.367Z,7.43
2017-12-21T14:24:14.941Z,5.93
2017-12-21T14:26:42.512Z,7.10
2017-12-21T14:29:10.096Z,5.57
2017-12-21T14:31:37.835Z,5.20
2017-12-21T14:34:05.407Z,5.00
2017-12-21T14:36:32.971Z,6.63
2017-12-21T14:39:00.534Z,4.47
2017-12-21T14:41:28.122Z,5.00
2017-12-21T14:43:55.686Z,4.90
2017-12-21T14:46:23.262Z,5.83
2017-12-21T14:48:50.854Z,5.33
2017-12-21T14:51:18.458Z,6.13
2017-12-21T14:53:46.028Z,5.17
2017-12-21T14:56:13.589Z,5.10
2017-12-21T14:58:41.281Z,6.20
2017-12-21T15:01:08.846Z,6.63
2017-12-21T15:03:36.454Z,6.80
2017-12-21T15:06:04.015Z,7.60
2017-12-21T15:08:31.615Z,8.00
2017-12-21T15:10:59.171Z,7.17
2017-12-21T15:13:26.908Z,6.67
2017-12-21T15:15:54.489Z,6.60
2017-12-21T15:18:22.052Z,7.03
2017-12-21T15:20:49.754Z,7.20
2017-12-21T15:23:18.095Z,6.90
2017-12-21T15:25:45.648Z,6.80
2017-12-21T15:28:13.338Z,5.20
2017-12-21T15:30:40.935Z,5.53
2017-12-21T15:33:08.543Z,5.10
2017-12-21T15:35:36.103Z,4.90
2017-12-21T15:38:03.691Z,4.80
2017-12-21T15:40:32.095Z,4.30
2017-12-21T15:42:59.700Z,2.40
2017-12-21T15:45:27.314Z,4.33
2017-12-21T15:47:54.871Z,4.50
2017-12-21T15:50:22.460Z,5.30
2017-12-21T15:52:50.095Z,4.33
2017-12-21T15:55:17.700Z,4.10
2017-12-21T15:57:45.304Z,4.53
2017-12-21T16:00:12.918Z,5.13
2017-12-21T16:02:41.992Z,5.10
2017-12-21T16:05:09.548Z,4.73
2017-12-21T16:07:37.154Z,5.33
2017-12-21T16:10:05.533Z,5.73
2017-12-21T16:12:33.897Z,4.90
2017-12-21T16:15:02.220Z,4.70
2017-12-21T16:17:29.815Z,5.03
2017-12-21T16:19:57.386Z,4.70
2017-12-21T16:22:24.963Z,4.10
2017-12-21T16:24:53.365Z,4.23
2017-12-21T16:27:20.922Z,4.43
2017-12-21T16:29:48.511Z,4.50
2017-12-21T16:32:16.135Z,5.30
2017-12-21T16:34:43.716Z,4.60
2017-12-21T16:37:11.307Z,5.37
2017-12-21T16:39:38.919Z,5.13
2017-12-21T16:42:06.464Z,5.40
2017-12-21T16:44:34.020Z,5.33
2017-12-21T16:47:01.606Z,5.77
2017-12-21T16:49:29.256Z,8.20
2017-12-21T16:51:56.840Z,8.63
2017-12-21T16:54:24.416Z,11.43
2017-12-21T16:56:51.979Z,10.53
2017-12-21T16:59:19.567Z,10.03
2017-12-21T17:01:47.895Z,9.73
2017-12-21T17:04:15.491Z,10.07
2017-12-21T17:06:43.823Z,10.77
2017-12-21T17:09:11.438Z,10.00
2017-12-21T17:11:39.020Z,10.97
2017-12-21T17:14:06.578Z,10.63
2017-12-21T17:16:34.199Z,9.57
2017-12-21T17:19:02.652Z,9.07
2017-12-21T17:21:30.307Z,9.17
2017-12-21T17:23:57.897Z,8.77
2017-12-21T17:26:26.378Z,9.00
2017-12-21T17:28:54.734Z,9.13
2017-12-21T17:31:22.321Z,9.27
2017-12-21T17:33:50.726Z,9.87
2017-12-21T17:36:18.275Z,9.40
2017-12-21T17:38:45.874Z,8.37
2017-12-21T17:41:13.439Z,8.93
2017-12-21T17:43:41.004Z,9.00
2017-12-21T17:46:08.599Z,8.27
2017-12-21T17:48:36.979Z,8.43
2017-12-21T17:51:04.667Z,7.60
2017-12-21T17:53:32.239Z,8.37
2017-12-21T17:55:59.856Z,7.73
2017-12-21T17:58:28.255Z,7.40
2017-12-21T18:00:55.833Z,7.40
2017-12-21T18:03:23.474Z,7.13
2017-12-21T18:05:51.082Z,6.30
2017-12-21T18:08:19.014Z,6.10
2017-12-21T18:10:47.241Z,4.50
2017-12-21T18:13:15.676Z,4.83
2017-12-21T18:15:43.242Z,4.83
2017-12-21T18:18:10.839Z,5.70
2017-12-21T18:20:38.553Z,4.87
2017-12-21T18:23:06.167Z,5.30
2017-12-21T18:25:34.582Z,5.03
2017-12-21T18:28:02.214Z,6.00
2017-12-21T18:30:29.846Z,5.67
2017-12-21T18:32:57.444Z,5.90
2017-12-21T18:35:25.008Z,5.23
2017-12-21T18:37:52.594Z,5.33
2017-12-21T18:40:20.238Z,6.40
2017-12-21T18:42:47.903Z,4.50
2017-12-21T18:45:15.463Z,5.40
2017-12-21T18:47:43.020Z,5.60
2017-12-21T18:50:10.635Z,4.97
2017-12-21T18:52:38.971Z,4.50
2017-12-21T18:55:06.555Z,4.87
2017-12-21T18:57:34.156Z,3.83
2017-12-21T19:00:01.928Z,3.67
2017-12-21T19:02:29.527Z,4.50
2017-12-21T19:04:57.102Z,5.63
2017-12-21T19:07:25.492Z,6.27
2017-12-21T19:09:53.067Z,5.40
2017-12-21T19:12:20.743Z,3.97
2017-12-21T19:14:48.333Z,3.37
2017-12-21T19:17:15.928Z,3.87
2017-12-21T19:19:44.387Z,4.27
2017-12-21T19:22:11.967Z,3.57
2017-12-21T19:24:40.455Z,3.90
2017-12-21T19:27:08.014Z,3.73
2017-12-21T19:29:35.619Z,4.03
2017-12-21T19:32:03.182Z,3.30
2017-12-21T19:34:30.786Z,3.23
2017-12-21T19:36:59.160Z,4.73
2017-12-21T19:39:27.488Z,3.80
2017-12-21T19:41:55.080Z,3.60
2017-12-21T19:44:22.627Z,4.60
2017-12-21T19:46:50.236Z,4.60
2017-12-21T19:49:17.788Z,4.60
2017-12-21T19:51:45.339Z,4.10
2017-12-21T19:54:12.962Z,4.23
2017-12-21T19:56:40.517Z,4.83
2017-12-21T19:59:08.092Z,4.17
2017-12-21T20:01:36.623Z,3.30
2017-12-21T20:04:04.187Z,2.73
2017-12-21T20:06:31.889Z,3.17
2017-12-21T20:08:59.443Z,3.03
2017-12-21T20:11:27.208Z,3.13
2017-12-21T20:13:54.804Z,3.20
2017-12-21T20:16:22.404Z,3.47
2017-12-21T20:18:49.967Z,3.30
2017-12-21T20:21:17.543Z,3.40
2017-12-21T20:23:45.191Z,3.60
2017-12-21T20:26:12.759Z,3.83
2017-12-21T20:28:40.367Z,4.60
2017-12-21T20:31:07.996Z,3.60
2017-12-21T20:33:36.373Z,3.83
2017-12-21T20:36:04.711Z,3.93
2017-12-21T20:38:32.294Z,2.70
2017-12-21T20:40:59.912Z,4.90
2017-12-21T20:43:27.553Z,4.77
2017-12-21T20:45:55.234Z,4.43
2017-12-21T20:48:22.794Z,3.97
2017-12-21T20:50:50.418Z,5.57
2017-12-21T20:53:18.751Z,4.50
2017-12-21T20:55:46.358Z,5.23
2017-12-21T20:58:14.074Z,4.90
2017-12-21T21:00:43.303Z,3.30
2017-12-21T21:03:11.668Z,4.83
2017-12-21T21:05:40.016Z,5.20
2017-12-21T21:08:07.748Z,6.07
2017-12-21T21:10:35.331Z,5.87
2017-12-21T21:13:02.931Z,5.50
2017-12-21T21:15:31.267Z,5.07
2017-12-21T21:17:58.868Z,5.90
2017-12-21T21:20:27.199Z,5.77
2017-12-21T21:22:54.782Z,5.17
2017-12-21T21:25:22.523Z,5.00
2017-12-21T21:27:50.225Z,5.60
2017-12-21T21:30:18.570Z,5.30
2017-12-21T21:32:46.195Z,4.90
2017-12-21T21:35:13.857Z,4.67
2017-12-21T21:37:41.430Z,4.60
2017-12-21T21:40:09.130Z,4.43
2017-12-21T21:42:36.694Z,4.60
2017-12-21T21:45:04.315Z,4.67
2017-12-21T21:47:31.903Z,5.33
2017-12-21T21:49:59.475Z,4.57
2017-12-21T21:52:27.889Z,4.73
2017-12-21T21:54:55.607Z,7.17
2017-12-21T21:57:23.166Z,6.50
2017-12-21T21:59:50.871Z,5.87
2017-12-21T22:02:18.436Z,6.40
2017-12-21T22:04:46.039Z,6.00
2017-12-21T22:07:13.608Z,6.43
2017-12-21T22:09:42.098Z,5.57
2017-12-21T22:12:10.492Z,6.40
2017-12-21T22:14:38.105Z,7.07
2017-12-21T22:17:05.839Z,6.53
2017-12-21T22:19:33.394Z,5.83
2017-12-21T22:22:00.984Z,5.43
2017-12-21T22:24:28.592Z,5.93
2017-12-21T22:26:56.161Z,6.50
2017-12-21T22:29:23.944Z,5.20
2017-12-21T22:31:51.516Z,6.90
2017-12-21T22:34:19.115Z,6.27
2017-12-21T22:36:47.458Z,6.57
2017-12-21T22:39:15.044Z,6.40
2017-12-21T22:41:43.662Z,6.47
2017-12-21T22:44:11.212Z,6.03
2017-12-21T22:46:38.939Z,5.63
2017-12-21T22:49:06.504Z,5.40
2017-12-21T22:51:34.902Z,4.70
2017-12-21T22:54:02.476Z,5.43
2017-12-21T22:56:30.027Z,5.30
2017-12-21T22:58:57.607Z,4.33
2017-12-21T23:01:25.331Z,5.80
2017-12-21T23:03:53.766Z,5.60
2017-12-21T23:06:21.332Z,5.47
2017-12-21T23:08:49.039Z,6.00
2017-12-21T23:11:16.724Z,4.43
2017-12-21T23:13:44.319Z,5.13
2017-12-21T23:16:11.881Z,5.87
2017-12-21T23:18:39.471Z,5.47
2017-12-21T23:21:07.196Z,5.40
2017-12-21T23:23:34.763Z,6.20
2017-12-21T23:26:02.343Z,6.00
2017-12-21T23:28:30.675Z,6.00
2017-12-21T23:30:58.283Z,6.50
2017-12-21T23:33:26.615Z,7.10
2017-12-21T23:35:54.195Z,5.30
2017-12-21T23:38:21.778Z,5.70
2017-12-21T23:40:50.114Z,5.60
2017-12-21T23:43:17.687Z,5.70
2017-12-21T23:45:45.262Z,6.30
2017-12-21T23:48:13.599Z,6.37
2017-12-21T23:50:41.151Z,5.67
2017-12-21T23:53:08.751Z,5.47
2017-12-21T23:55:37.164Z,5.70
2017-12-21T23:58:04.733Z,6.03
